Huvudsida
METAR-TAF:

METAR-TAF

Flygplatser :

Tak, Thailand

latitud: 16-53N, longitud: 099-09E, höjd: 121 m

Aktuellt väderrapport

Denna rapport gjordes för 8 timmar och 50 minuter sedan, klockan 11:00 UTC
Temperatur 34°C
Fuktighet 39%
Tryck 1010 hPa
Sikt: 7000 m
Få moln på en höjd av 2600 ft

METAR: VTPT 221100Z /////KT 7000 FEW026 34/18 Q1010 NOSIG

Tid: 02:50 (19:50 UTC)

Väderprognos

Denna rapport gjordes för 2 timmar och 50 minuter sedan, klockan 17:00 UTC
Prognos gäller från 22 kl. 18 UTC till 23 kl. 18 UTC
Vind 5 kt från nord/nordväst
Sikt: 7000 m
Få moln på en höjd av 2600 ft
Blir
från 23 kl. 03 UTC till 23 kl. 05 UTC
Vind 5 kt från syd
Blir
från 23 kl. 09 UTC till 23 kl. 11 UTC
Vind 5 kt från väst/sydväst
Blir
från 23 kl. 16 UTC till 23 kl. 18 UTC
Vind 5 kt från nord/nordväst

TAF: VTPT 221700Z 2218/2318 33005KT 7000 FEW026 BECMG 2303/2305 17005KT BECMG 2309/2311 25005KT BECMG 2316/2318 34005KT

Aktuella väderrapporter och prognoser från 4000 flygplatser (METAR- och TAF-rapporter).

De tillgängliga stationerna syns som gula och röda prickar på kartan.

För musen över prickarna för att se namnen på stationerna.

Klicka sedan för att få väderrapporter och prognoser.

För att ändra kartan: Klicka på de gröna knapparna med ett svart kors på för att zooma in; den gröna knappen med ett streck på för att zooma ut; eller på de gröna pilarna för angränsande kartor.


METAR-TAF: